Time;durP1;ratioP1;P1;durP2;ratioP2;P2;SDS_P1;SDS_P2;PMS_P1;PMS_P2;Temp;Humidity;BMP_temperature;BMP_pressure;BME280_temperature;BME280_humidity;BME280_pressure;Samples;Min_cycle;Max_cycle;Signal;HPM_P1;HPM_P2
2022/03/08 00:01:15;;;;;;;;;;;;;;;3.04;100.00;99195.44;5095805;28;19931;-83
2022/03/08 00:03:42;;;;;;;;;;;;;;;2.82;100.00;99191.53;5079514;28;19924;-83
2022/03/08 00:06:12;;;;;;;;;;;;;;;2.93;100.00;99192.50;5078989;28;20001;-82
2022/03/08 00:08:40;;;;;;;;;;;;;;;2.87;100.00;99176.63;5079361;28;19966;-82
2022/03/08 00:11:10;;;;;;;;;;;;;;;2.81;100.00;99192.69;5079194;28;19950;-82
2022/03/08 00:13:37;;;;;;;;;;;;;;;2.79;100.00;99177.66;5093944;28;19924;-83
2022/03/08 00:16:05;;;;;;;;;;;;;;;2.79;100.00;99175.69;5077706;28;20291;-82
2022/03/08 00:18:32;;;;;;;;;;;;;;;2.86;100.00;99167.53;5061658;28;19947;-83
2022/03/08 00:21:00;;;;;;;;;;;;;;;2.88;100.00;99169.91;5078357;28;19931;-83
2022/03/08 00:23:27;;;;;;;;;;;;;;;2.72;100.00;99158.22;5094776;28;19974;-83
2022/03/08 00:25:56;;;;;;;;;;;;;;;2.69;100.00;99151.50;5061680;28;19930;-84
2022/03/08 00:28:23;;;;;;;;;;;;;;;2.62;100.00;99162.41;5095104;28;19935;-84
2022/03/08 00:30:51;;;;;;;;;;;;;;;2.61;100.00;99151.75;5094831;28;19939;-84
2022/03/08 00:33:19;;;;;;;;;;;;;;;2.55;100.00;99150.44;5078705;28;19931;-84
2022/03/08 00:35:47;;;;;;;;;;;;;;;2.63;100.00;99146.66;5078289;28;19924;-84
2022/03/08 00:38:15;;;;;;;;;;;;;;;2.54;100.00;99146.13;5061707;28;19928;-83
2022/03/08 00:40:43;;;;;;;;;;;;;;;2.51;100.00;99136.63;5062404;28;20439;-83
2022/03/08 00:43:10;;;;;;;;;;;;;;;2.40;100.00;99156.91;5095284;28;19924;-83
2022/03/08 00:45:37;;;;;;;;;;;;;;;2.46;100.00;99131.41;5077887;28;19930;-83
2022/03/08 00:48:05;;;;;;;;;;;;;;;2.31;100.00;99129.56;5095237;28;20011;-83
2022/03/08 00:50:33;;;;;;;;;;;;;;;2.35;100.00;99122.16;5077980;28;20360;-83
2022/03/08 00:53:00;;;;;;;;;;;;;;;2.34;100.00;99117.00;5078359;28;20364;-83
2022/03/08 00:55:31;;;;;;;;;;;;;;;2.44;100.00;99124.69;5078105;28;20006;-82
2022/03/08 00:57:59;;;;;;;;;;;;;;;2.33;100.00;99107.94;5094247;28;19947;-83
2022/03/08 01:00:27;;;;;;;;;;;;;;;2.26;100.00;99116.09;5061390;28;19928;-83
2022/03/08 01:02:54;;;;;;;;;;;;;;;2.26;100.00;99110.56;5096296;28;19932;-83
2022/03/08 01:05:26;;;;;;;;;;;;;;;2.20;100.00;99116.75;5094988;28;19925;-83
2022/03/08 01:08:00;;;;;;;;;;;;;;;2.43;100.00;99109.28;5061228;28;19924;-82
2022/03/08 01:10:29;;;;;;;;;;;;;;;2.34;100.00;99100.47;5093958;28;19924;-83
2022/03/08 01:13:00;;;;;;;;;;;;;;;2.25;100.00;99108.19;5061487;28;19924;-83
2022/03/08 01:15:29;;;;;;;;;;;;;;;2.33;100.00;99098.88;5094920;28;19974;-83
2022/03/08 01:17:57;;;;;;;;;;;;;;;2.16;100.00;99104.88;5061363;28;19924;-83
2022/03/08 01:20:24;;;;;;;;;;;;;;;2.38;100.00;99087.53;5060979;28;19959;-83
2022/03/08 01:22:52;;;;;;;;;;;;;;;2.24;100.00;99084.53;5094945;28;19932;-83
2022/03/08 01:25:22;;;;;;;;;;;;;;;2.51;100.00;99080.66;5060118;28;20015;-83
2022/03/08 01:27:53;;;;;;;;;;;;;;;2.21;100.00;99090.78;5094518;28;20326;-83
2022/03/08 01:30:21;;;;;;;;;;;;;;;2.37;100.00;99088.69;5094486;28;19924;-83
2022/03/08 01:32:50;;;;;;;;;;;;;;;2.40;100.00;99096.22;5076785;28;19967;-83
2022/03/08 01:35:18;;;;;;;;;;;;;;;2.47;100.00;99072.31;5061064;28;19931;-83
2022/03/08 01:37:45;;;;;;;;;;;;;;;2.31;100.00;99077.19;5043782;28;20329;-83
2022/03/08 01:40:16;;;;;;;;;;;;;;;2.41;100.00;99050.97;5077308;28;19924;-83
2022/03/08 01:42:47;;;;;;;;;;;;;;;2.11;100.00;99052.78;5077021;28;19924;-83
2022/03/08 01:45:19;;;;;;;;;;;;;;;1.95;100.00;99054.88;5095037;28;19924;-83
2022/03/08 01:47:50;;;;;;;;;;;;;;;2.16;100.00;99058.00;5077449;28;20284;-82
2022/03/08 01:50:18;;;;;;;;;;;;;;;2.29;100.00;99040.13;5077104;28;19967;-83
2022/03/08 01:52:46;;;;;;;;;;;;;;;2.30;100.00;99045.28;5076716;28;19930;-84
2022/03/08 01:55:14;;;;;;;;;;;;;;;2.39;100.00;99036.72;5094546;28;19978;-83
2022/03/08 01:57:46;;;;;;;;;;;;;;;2.32;100.00;99037.41;5093538;28;20028;-83
2022/03/08 02:00:14;;;;;;;;;;;;;;;2.33;100.00;99028.00;5093892;28;19974;-83
2022/03/08 02:02:42;;;;;;;;;;;;;;;2.27;100.00;99015.69;5076988;28;19932;-83
2022/03/08 02:05:10;;;;;;;;;;;;;;;2.36;100.00;99013.47;5060334;28;19924;-83
2022/03/08 02:07:39;;;;;;;;;;;;;;;2.93;100.00;99023.34;5093396;28;20320;-83
2022/03/08 02:10:07;;;;;;;;;;;;;;;2.48;100.00;99004.16;5076602;28;19930;-83
2022/03/08 02:12:34;;;;;;;;;;;;;;;2.45;100.00;98996.63;5093072;28;20323;-83
2022/03/08 02:15:18;;;;;;;;;;;;;;;2.56;100.00;98997.59;5094962;28;20284;-83
2022/03/08 02:17:46;;;;;;;;;;;;;;;2.31;100.00;98983.44;5093284;28;19930;-83
2022/03/08 02:20:13;;;;;;;;;;;;;;;2.60;100.00;98987.41;5060079;28;19924;-83
2022/03/08 02:22:45;;;;;;;;;;;;;;;2.21;100.00;98989.59;5094664;28;20019;-83
2022/03/08 02:25:16;;;;;;;;;;;;;;;2.33;100.00;98972.03;5076468;28;19928;-83
2022/03/08 02:27:44;;;;;;;;;;;;;;;2.37;100.00;98979.19;5076728;28;20106;-83
2022/03/08 02:30:12;;;;;;;;;;;;;;;2.44;100.00;98965.50;5076888;28;19925;-83
2022/03/08 02:32:40;;;;;;;;;;;;;;;2.43;100.00;98965.88;5094650;28;19924;-83
2022/03/08 02:35:12;;;;;;;;;;;;;;;2.37;100.00;98954.38;5060108;28;20029;-83
2022/03/08 02:37:43;;;;;;;;;;;;;;;2.41;100.00;98954.44;5075570;28;19932;-83
2022/03/08 02:40:14;;;;;;;;;;;;;;;2.15;100.00;98951.69;5076055;28;19927;-83
2022/03/08 02:42:43;;;;;;;;;;;;;;;2.42;100.00;98937.53;5076278;28;19930;-83
2022/03/08 02:45:11;;;;;;;;;;;;;;;2.15;100.00;98927.66;5076016;28;19924;-83
2022/03/08 02:47:38;;;;;;;;;;;;;;;2.12;100.00;98938.63;5043120;28;19928;-83
2022/03/08 02:50:08;;;;;;;;;;;;;;;2.28;100.00;98925.47;5076384;28;19924;-83
2022/03/08 02:52:36;;;;;;;;;;;;;;;2.09;100.00;98920.84;5059539;28;19967;-83
2022/03/08 02:55:04;;;;;;;;;;;;;;;2.22;100.00;98910.41;5059527;28;19970;-83
2022/03/08 02:57:31;;;;;;;;;;;;;;;1.95;100.00;98926.19;5075660;28;20020;-83
2022/03/08 02:59:59;;;;;;;;;;;;;;;2.13;100.00;98918.16;5075937;28;20023;-83
2022/03/08 03:02:26;;;;;;;;;;;;;;;2.09;100.00;98906.31;5093368;28;19935;-84
2022/03/08 03:04:54;;;;;;;;;;;;;;;1.97;100.00;98904.53;5092570;28;19931;-84
2022/03/08 03:07:22;;;;;;;;;;;;;;;1.88;100.00;98907.56;5075304;28;20371;-83
2022/03/08 03:09:50;;;;;;;;;;;;;;;1.97;100.00;98892.75;5075805;28;19925;-83
2022/03/08 03:12:17;;;;;;;;;;;;;;;1.82;100.00;98876.00;5093668;28;20264;-83
2022/03/08 03:14:47;;;;;;;;;;;;;;;1.95;100.00;98889.56;5075905;28;19931;-83
2022/03/08 03:17:17;;;;;;;;;;;;;;;1.98;100.00;98877.78;5092885;28;20373;-83
2022/03/08 03:19:44;;;;;;;;;;;;;;;1.91;100.00;98859.19;5059612;28;19950;-83
2022/03/08 03:22:12;;;;;;;;;;;;;;;2.02;100.00;98881.38;5092664;28;19970;-83
2022/03/08 03:24:40;;;;;;;;;;;;;;;2.08;100.00;98883.44;5091908;28;19931;-83
2022/03/08 03:27:08;;;;;;;;;;;;;;;2.26;100.00;98872.69;5075549;28;19924;-83
2022/03/08 03:29:35;;;;;;;;;;;;;;;2.03;100.00;98881.00;5093478;28;19930;-83
2022/03/08 03:32:03;;;;;;;;;;;;;;;1.77;100.00;98873.53;5092815;28;19938;-83
2022/03/08 03:34:33;;;;;;;;;;;;;;;1.76;100.00;98860.94;5075508;28;19932;-83
2022/03/08 03:37:00;;;;;;;;;;;;;;;1.88;100.00;98860.72;5093741;28;20014;-83
2022/03/08 03:39:28;;;;;;;;;;;;;;;1.85;100.00;98860.66;5092141;28;19924;-83
2022/03/08 03:41:55;;;;;;;;;;;;;;;2.02;100.00;98840.03;5092447;28;19947;-83
2022/03/08 03:44:23;;;;;;;;;;;;;;;1.71;100.00;98850.22;5093329;28;19963;-83
2022/03/08 03:46:50;;;;;;;;;;;;;;;2.01;100.00;98846.72;5092143;28;19974;-83
2022/03/08 03:49:17;;;;;;;;;;;;;;;1.81;100.00;98838.59;5078397;28;19924;-83
2022/03/08 03:51:50;;;;;;;;;;;;;;;1.90;100.00;98832.81;5095578;28;19924;-83
2022/03/08 03:54:21;;;;;;;;;;;;;;;1.66;100.00;98839.53;5079125;28;19924;-83
2022/03/08 03:56:50;;;;;;;;;;;;;;;1.63;100.00;98829.28;5062533;28;19924;-83
2022/03/08 03:59:19;;;;;;;;;;;;;;;1.64;100.00;98841.06;5096191;28;19963;-83
2022/03/08 04:01:48;;;;;;;;;;;;;;;1.69;100.00;98822.28;5095552;28;19928;-83
2022/03/08 04:04:16;;;;;;;;;;;;;;;1.62;100.00;98827.66;5095428;28;20414;-83
2022/03/08 04:06:44;;;;;;;;;;;;;;;1.62;100.00;98826.88;5078594;28;19959;-83
2022/03/08 04:09:13;;;;;;;;;;;;;;;1.92;100.00;98813.16;5078495;28;19930;-83
2022/03/08 04:11:43;;;;;;;;;;;;;;;1.67;100.00;98824.59;5095980;28;20324;-83
2022/03/08 04:14:10;;;;;;;;;;;;;;;1.79;100.00;98810.63;5078753;28;19974;-83
2022/03/08 04:16:38;;;;;;;;;;;;;;;1.79;100.00;98805.09;5078575;28;20034;-83
2022/03/08 04:19:08;;;;;;;;;;;;;;;1.66;100.00;98817.50;5078890;28;19931;-83
2022/03/08 04:21:35;;;;;;;;;;;;;;;1.59;100.00;98811.09;5078310;28;20045;-85
2022/03/08 04:24:03;;;;;;;;;;;;;;;1.66;100.00;98806.50;5062213;28;19978;-83
2022/03/08 04:26:30;;;;;;;;;;;;;;;1.70;100.00;98798.25;5078200;28;19969;-84
2022/03/08 04:28:57;;;;;;;;;;;;;;;1.92;100.00;98808.44;5078505;28;19955;-84
2022/03/08 04:31:24;;;;;;;;;;;;;;;1.74;100.00;98810.91;5095057;28;19924;-84
2022/03/08 04:33:51;;;;;;;;;;;;;;;1.60;100.00;98824.50;5094469;28;20007;-84
2022/03/08 04:36:19;;;;;;;;;;;;;;;2.07;100.00;98798.38;5095161;28;19931;-84
2022/03/08 04:38:46;;;;;;;;;;;;;;;1.96;100.00;98800.19;5094715;28;19935;-84
2022/03/08 04:41:14;;;;;;;;;;;;;;;1.69;100.00;98807.72;5094828;28;19924;-83
2022/03/08 04:43:42;;;;;;;;;;;;;;;1.69;100.00;98811.25;5078467;28;19924;-83
2022/03/08 04:46:10;;;;;;;;;;;;;;;1.73;100.00;98792.81;5045208;28;19924;-83
2022/03/08 04:48:37;;;;;;;;;;;;;;;1.57;100.00;98775.69;5044954;28;19928;-83
2022/03/08 04:51:05;;;;;;;;;;;;;;;2.01;100.00;98789.66;5077548;28;19930;-83
2022/03/08 04:53:32;;;;;;;;;;;;;;;2.08;100.00;98797.22;5094491;28;19924;-83
2022/03/08 04:56:00;;;;;;;;;;;;;;;1.57;100.00;98800.47;5096021;28;19993;-83
2022/03/08 04:58:27;;;;;;;;;;;;;;;1.72;100.00;98788.47;5095934;28;19935;-83
2022/03/08 05:00:55;;;;;;;;;;;;;;;1.96;100.00;98798.25;5096050;28;19931;-83
2022/03/08 05:03:22;;;;;;;;;;;;;;;1.72;100.00;98796.75;5077673;28;19958;-83
2022/03/08 05:05:49;;;;;;;;;;;;;;;1.71;100.00;98786.88;5094304;28;20019;-83
2022/03/08 05:08:16;;;;;;;;;;;;;;;1.72;100.00;98788.47;5095449;28;19973;-83
2022/03/08 05:10:45;;;;;;;;;;;;;;;1.87;100.00;98783.97;5094663;28;19962;-83
2022/03/08 05:13:12;;;;;;;;;;;;;;;1.63;100.00;98796.22;5094226;28;19924;-83
2022/03/08 05:15:40;;;;;;;;;;;;;;;1.84;100.00;98777.25;5077803;28;19989;-83
2022/03/08 05:18:07;;;;;;;;;;;;;;;1.38;100.00;98777.72;5077890;28;19993;-83
2022/03/08 05:20:36;;;;;;;;;;;;;;;1.78;100.00;98764.16;5076834;28;19924;-83
2022/03/08 05:23:04;;;;;;;;;;;;;;;1.81;100.00;98763.41;5076939;28;20028;-83
2022/03/08 05:25:32;;;;;;;;;;;;;;;1.99;100.00;98772.69;5076823;28;20086;-83
2022/03/08 05:27:59;;;;;;;;;;;;;;;1.94;100.00;98777.75;5060300;28;19977;-83
2022/03/08 05:30:27;;;;;;;;;;;;;;;2.00;100.00;98765.25;5043649;28;20291;-84
2022/03/08 05:32:55;;;;;;;;;;;;;;;2.03;100.00;98761.72;5076797;28;20359;-84
2022/03/08 05:35:22;;;;;;;;;;;;;;;1.81;100.00;98760.66;5093463;28;20399;-83
2022/03/08 05:37:50;;;;;;;;;;;;;;;1.78;100.00;98759.44;5093948;28;19931;-83
2022/03/08 05:40:18;;;;;;;;;;;;;;;1.76;100.00;98761.78;5077005;28;20391;-83
2022/03/08 05:42:45;;;;;;;;;;;;;;;2.14;100.00;98755.19;5095613;28;20287;-83
2022/03/08 05:45:12;;;;;;;;;;;;;;;2.42;100.00;98765.75;5085102;28;19924;-84
2022/03/08 05:47:40;;;;;;;;;;;;;;;2.33;100.00;98745.94;5060859;28;20382;-83
2022/03/08 05:50:08;;;;;;;;;;;;;;;1.89;100.00;98754.84;5076756;28;19928;-83
2022/03/08 05:52:35;;;;;;;;;;;;;;;2.05;100.00;98746.41;5094538;28;20323;-83
2022/03/08 05:55:04;;;;;;;;;;;;;;;1.47;100.00;98748.75;5076687;28;19965;-84
2022/03/08 05:57:32;;;;;;;;;;;;;;;1.55;100.00;98758.72;5093417;28;19924;-83
2022/03/08 05:59:59;;;;;;;;;;;;;;;1.60;100.00;98747.41;5094931;28;19924;-83
2022/03/08 06:02:37;;;;;;;;;;;;;;;1.61;100.00;98757.22;5076334;28;20038;-83
2022/03/08 06:05:05;;;;;;;;;;;;;;;1.97;100.00;98750.22;5093581;28;20312;-84
2022/03/08 06:07:32;;;;;;;;;;;;;;;2.07;100.00;98740.50;5043272;28;19947;-84
2022/03/08 06:10:00;;;;;;;;;;;;;;;2.01;100.00;98733.75;5093144;28;20338;-84
2022/03/08 06:12:27;;;;;;;;;;;;;;;2.13;100.00;98733.50;5079383;28;19950;-84
2022/03/08 06:14:55;;;;;;;;;;;;;;;1.82;100.00;98738.25;5089289;28;19924;-84
2022/03/08 06:17:22;;;;;;;;;;;;;;;1.86;100.00;98743.81;5095850;28;20037;-84
2022/03/08 06:19:52;;;;;;;;;;;;;;;1.92;100.00;98738.75;5097191;28;19923;-83
2022/03/08 06:22:19;;;;;;;;;;;;;;;1.88;100.00;98732.41;5097390;28;19977;-83
2022/03/08 06:24:46;;;;;;;;;;;;;;;2.03;100.00;98717.66;5113024;28;19927;-83
2022/03/08 06:27:14;;;;;;;;;;;;;;;1.66;100.00;98742.34;5113305;28;19966;-83
2022/03/08 06:29:41;;;;;;;;;;;;;;;1.94;100.00;98726.19;5092779;28;19924;-83
2022/03/08 06:32:08;;;;;;;;;;;;;;;2.09;100.00;98725.19;5075890;28;19924;-84
2022/03/08 06:34:36;;;;;;;;;;;;;;;1.84;100.00;98733.16;5043254;28;19970;-83
2022/03/08 06:37:03;;;;;;;;;;;;;;;1.82;100.00;98731.94;5076706;28;19924;-83
2022/03/08 06:39:31;;;;;;;;;;;;;;;1.86;100.00;98733.56;5092839;28;19924;-83
2022/03/08 06:41:58;;;;;;;;;;;;;;;1.86;100.00;98722.53;5060121;28;20015;-83
2022/03/08 06:44:27;;;;;;;;;;;;;;;1.94;100.00;98728.16;5076294;28;20328;-85
2022/03/08 06:46:57;;;;;;;;;;;;;;;2.16;100.00;98724.47;5092685;28;19924;-85
2022/03/08 06:49:24;;;;;;;;;;;;;;;1.89;100.00;98715.50;5076106;28;20031;-84
2022/03/08 06:51:52;;;;;;;;;;;;;;;1.82;100.00;98721.72;5072933;28;20326;-82
2022/03/08 06:54:19;;;;;;;;;;;;;;;1.87;100.00;98717.84;5072767;28;20272;-83
2022/03/08 06:56:47;;;;;;;;;;;;;;;1.60;100.00;98714.34;5073469;28;19954;-82
2022/03/08 06:59:15;;;;;;;;;;;;;;;1.88;100.00;98714.72;5098394;28;20449;-81
2022/03/08 07:01:42;;;;;;;;;;;;;;;1.76;100.00;98722.41;5110899;28;19946;-82
2022/03/08 07:04:10;;;;;;;;;;;;;;;2.17;100.00;98704.00;5111532;28;19928;-83
2022/03/08 07:06:37;;;;;;;;;;;;;;;1.75;100.00;98710.63;5111565;28;19924;-81
2022/03/08 07:09:04;;;;;;;;;;;;;;;1.84;100.00;98708.38;5108401;28;19946;-81
2022/03/08 07:11:35;;;;;;;;;;;;;;;1.81;100.00;98708.31;5101347;28;20411;-80
2022/03/08 07:14:03;;;;;;;;;;;;;;;2.03;100.00;98698.34;5111255;28;20394;-81
2022/03/08 07:16:30;;;;;;;;;;;;;;;1.83;100.00;98717.78;5109306;28;19924;-81
2022/03/08 07:18:58;;;;;;;;;;;;;;;2.52;100.00;98715.41;5111551;28;20378;-82
2022/03/08 07:21:25;;;;;;;;;;;;;;;2.43;100.00;98701.94;5111791;28;19931;-82
2022/03/08 07:23:52;;;;;;;;;;;;;;;2.39;100.00;98716.88;5095092;28;19924;-81
2022/03/08 07:26:19;;;;;;;;;;;;;;;2.01;100.00;98706.19;5114057;28;20396;-81
2022/03/08 07:28:47;;;;;;;;;;;;;;;2.45;100.00;98707.88;5076909;28;19931;-81
2022/03/08 07:31:15;;;;;;;;;;;;;;;1.98;100.00;98716.00;5096338;28;20257;-82
2022/03/08 07:33:42;;;;;;;;;;;;;;;1.95;100.00;98725.03;5096405;28;19925;-81
2022/03/08 07:36:09;;;;;;;;;;;;;;;2.33;100.00;98715.63;5096738;28;20463;-81
2022/03/08 07:38:36;;;;;;;;;;;;;;;2.25;100.00;98717.50;5079905;28;20012;-81
2022/03/08 07:41:04;;;;;;;;;;;;;;;2.82;100.00;98707.81;5079817;28;20402;-81
2022/03/08 07:43:32;;;;;;;;;;;;;;;3.08;100.00;98710.41;5079658;28;19932;-81
2022/03/08 07:46:00;;;;;;;;;;;;;;;2.93;100.00;98708.72;5096154;28;19954;-81
2022/03/08 07:48:27;;;;;;;;;;;;;;;3.19;100.00;98719.59;5079173;28;19942;-81
2022/03/08 07:50:54;;;;;;;;;;;;;;;3.64;100.00;98710.81;5090577;28;20422;-81
2022/03/08 07:53:21;;;;;;;;;;;;;;;3.69;100.00;98718.75;5080385;28;19924;-81
2022/03/08 07:55:48;;;;;;;;;;;;;;;3.28;100.00;98720.03;5116422;28;19959;-81
2022/03/08 07:58:17;;;;;;;;;;;;;;;3.57;100.00;98717.06;5113948;28;19932;-81
2022/03/08 08:00:45;;;;;;;;;;;;;;;3.66;100.00;98708.47;5096187;28;19928;-82
2022/03/08 08:03:13;;;;;;;;;;;;;;;4.10;100.00;98717.38;5104491;28;19969;-81
2022/03/08 08:05:40;;;;;;;;;;;;;;;4.44;100.00;98710.34;5099233;28;19924;-81
2022/03/08 08:08:07;;;;;;;;;;;;;;;4.81;100.00;98708.06;5116171;28;20359;-81
2022/03/08 08:10:35;;;;;;;;;;;;;;;4.62;100.00;98708.41;5117330;28;19970;-81
2022/03/08 08:13:02;;;;;;;;;;;;;;;4.24;100.00;98700.81;5117030;28;19928;-81
2022/03/08 08:15:29;;;;;;;;;;;;;;;4.78;100.00;98697.78;5099130;28;19949;-81
2022/03/08 08:17:57;;;;;;;;;;;;;;;5.10;100.00;98706.09;5082214;28;19931;-81
2022/03/08 08:20:24;;;;;;;;;;;;;;;5.83;100.00;98687.81;5117269;28;19939;-81
2022/03/08 08:22:54;;;;;;;;;;;;;;;5.30;100.00;98696.97;5116933;28;19930;-82
2022/03/08 08:25:22;;;;;;;;;;;;;;;5.67;100.00;98677.13;5115649;28;19924;-81
2022/03/08 08:27:49;;;;;;;;;;;;;;;5.99;100.00;98688.13;5115543;28;19930;-81
2022/03/08 08:30:16;;;;;;;;;;;;;;;6.62;100.00;98673.94;5116688;28;20015;-81
2022/03/08 08:32:44;;;;;;;;;;;;;;;5.59;100.00;98681.09;5115599;28;19923;-82
2022/03/08 08:35:11;;;;;;;;;;;;;;;6.51;100.00;98664.88;5115050;28;19924;-81
2022/03/08 08:37:41;;;;;;;;;;;;;;;6.22;100.00;98674.56;5113020;28;19928;-81
2022/03/08 08:40:09;;;;;;;;;;;;;;;6.81;100.00;98656.75;5092592;28;19932;-81
2022/03/08 08:42:36;;;;;;;;;;;;;;;6.32;100.00;98657.06;5098486;28;19923;-83
2022/03/08 08:45:03;;;;;;;;;;;;;;;5.55;100.00;98658.94;5117091;27;20022;-84
2022/03/08 08:47:31;;;;;;;;;;;;;;;4.93;100.00;98676.41;5095478;28;20266;-83
2022/03/08 08:49:58;;;;;;;;;;;;;;;4.97;100.00;98658.63;5066384;28;19928;-83
2022/03/08 08:52:25;;;;;;;;;;;;;;;4.32;100.00;98657.34;5078194;28;20386;-83
2022/03/08 08:54:53;;;;;;;;;;;;;;;4.42;100.00;98662.94;5079343;28;20065;-83
2022/03/08 08:57:20;;;;;;;;;;;;;;;4.57;100.00;98664.53;5094227;28;20340;-83
2022/03/08 08:59:47;;;;;;;;;;;;;;;5.23;100.00;98652.66;5061456;28;20318;-83
2022/03/08 09:02:15;;;;;;;;;;;;;;;5.28;100.00;98655.03;5078103;28;19924;-83
2022/03/08 09:04:42;;;;;;;;;;;;;;;5.41;100.00;98652.63;5094701;28;19928;-83
2022/03/08 09:07:10;;;;;;;;;;;;;;;4.62;100.00;98658.59;5078293;28;19969;-83
2022/03/08 09:09:37;;;;;;;;;;;;;;;5.10;100.00;98651.47;5094855;28;19924;-83
2022/03/08 09:12:06;;;;;;;;;;;;;;;5.45;100.00;98651.44;5086674;28;20027;-83
2022/03/08 09:14:33;;;;;;;;;;;;;;;4.90;100.00;98649.53;5097945;28;19930;-83
2022/03/08 09:17:00;;;;;;;;;;;;;;;4.91;100.00;98662.16;5097742;28;20069;-81
2022/03/08 09:19:27;;;;;;;;;;;;;;;4.58;100.00;98665.31;5112161;28;19924;-81
2022/03/08 09:21:55;;;;;;;;;;;;;;;4.60;100.00;98661.00;5113288;28;19924;-86
2022/03/08 09:24:22;;;;;;;;;;;;;;;4.54;100.00;98665.34;5060157;28;19984;-80
2022/03/08 09:26:49;;;;;;;;;;;;;;;4.66;100.00;98664.94;5080374;28;19927;-92
2022/03/08 09:29:18;;;;;;;;;;;;;;;4.55;100.00;98669.66;5061571;28;20295;-85
2022/03/08 09:31:45;;;;;;;;;;;;;;;4.62;100.00;98661.38;5094721;28;20290;-90
2022/03/08 09:34:13;;;;;;;;;;;;;;;4.47;100.00;98659.78;5076323;28;20353;-82
2022/03/08 09:36:40;;;;;;;;;;;;;;;4.17;100.00;98675.09;5093365;28;20398;-81
2022/03/08 09:39:07;;;;;;;;;;;;;;;4.45;100.00;98661.34;5109334;28;19923;-82
2022/03/08 09:41:35;;;;;;;;;;;;;;;4.33;100.00;98670.78;5099489;28;19932;-80
2022/03/08 09:44:02;;;;;;;;;;;;;;;4.60;100.00;98668.50;5095828;27;19936;-81
2022/03/08 09:46:30;;;;;;;;;;;;;;;4.38;100.00;98672.38;5099270;28;20358;-82
2022/03/08 09:48:57;;;;;;;;;;;;;;;4.64;100.00;98667.31;5080686;28;19993;-81
2022/03/08 09:51:25;;;;;;;;;;;;;;;4.73;100.00;98673.25;5100802;28;20057;-82
2022/03/08 09:53:55;;;;;;;;;;;;;;;4.83;100.00;98678.00;5101105;28;19967;-83
2022/03/08 09:56:22;;;;;;;;;;;;;;;4.80;100.00;98661.41;5111888;28;19927;-83
2022/03/08 09:58:50;;;;;;;;;;;;;;;4.68;100.00;98670.09;5090383;28;19928;-83
2022/03/08 10:01:17;;;;;;;;;;;;;;;4.64;100.00;98664.53;5075077;28;19970;-83
2022/03/08 10:03:46;;;;;;;;;;;;;;;4.89;100.00;98659.81;5104470;28;19928;-82
2022/03/08 10:06:13;;;;;;;;;;;;;;;4.75;100.00;98657.06;5102797;28;19923;-82
2022/03/08 10:08:40;;;;;;;;;;;;;;;4.79;100.00;98651.50;5110999;28;20389;-81
2022/03/08 10:11:11;;;;;;;;;;;;;;;4.78;100.00;98647.97;5090296;28;19928;-81
2022/03/08 10:13:49;;;;;;;;;;;;;;;4.87;100.00;98664.97;5075689;28;19924;-81
2022/03/08 10:16:26;;;;;;;;;;;;;;;4.91;100.00;98660.19;5100158;27;19923;-81
2022/03/08 10:18:57;;;;;;;;;;;;;;;5.50;100.00;98651.03;5080660;28;20391;-81
2022/03/08 10:21:32;;;;;;;;;;;;;;;5.22;100.00;98637.25;5097012;28;19924;-83
2022/03/08 10:24:00;;;;;;;;;;;;;;;5.87;100.00;98641.44;5105043;28;20296;-82
2022/03/08 10:26:28;;;;;;;;;;;;;;;6.27;100.00;98649.19;5090178;28;19967;-82
2022/03/08 10:28:57;;;;;;;;;;;;;;;5.91;100.00;98625.59;5129811;27;19923;-81
2022/03/08 10:31:24;;;;;;;;;;;;;;;5.93;100.00;98631.50;5103629;27;19925;-80
2022/03/08 10:33:51;;;;;;;;;;;;;;;6.25;100.00;98615.50;5110092;28;19974;-80
2022/03/08 10:36:21;;;;;;;;;;;;;;;5.75;100.00;98627.97;5098397;28;19924;-79
2022/03/08 10:39:04;;;;;;;;;;;;;;;6.26;100.00;98620.63;5091044;28;19924;-80
2022/03/08 10:41:32;;;;;;;;;;;;;;;6.28;100.00;98623.00;5087502;28;19924;-78
2022/03/08 10:43:59;;;;;;;;;;;;;;;6.03;100.00;98611.28;5087684;28;20365;-80
2022/03/08 10:46:27;;;;;;;;;;;;;;;6.37;100.00;98615.81;5087929;28;19924;-77
2022/03/08 10:48:54;;;;;;;;;;;;;;;6.29;100.00;98607.94;5091637;28;19931;-80
2022/03/08 10:51:22;;;;;;;;;;;;;;;6.22;100.00;98617.09;5093583;28;19963;-83
2022/03/08 10:53:52;;;;;;;;;;;;;;;6.42;100.00;98592.41;5089884;28;19924;-80
2022/03/08 10:56:23;;;;;;;;;;;;;;;6.69;100.00;98599.72;5088351;28;19924;-81
2022/03/08 10:58:51;;;;;;;;;;;;;;;6.73;100.00;98594.13;5093366;28;19928;-80
2022/03/08 11:01:19;;;;;;;;;;;;;;;6.50;100.00;98602.22;5093248;28;20397;-79
2022/03/08 11:03:58;;;;;;;;;;;;;;;6.41;100.00;98594.38;5085634;28;19938;-80
2022/03/08 11:06:25;;;;;;;;;;;;;;;6.94;100.00;98569.75;5106646;28;19969;-80
2022/03/08 11:08:53;;;;;;;;;;;;;;;6.84;100.00;98578.19;5095646;28;19928;-81
2022/03/08 11:11:21;;;;;;;;;;;;;;;6.89;100.00;98592.41;5102918;28;19928;-81
2022/03/08 11:14:14;;;;;;;;;;;;;;;6.91;100.00;98580.88;5086764;28;19998;-81
2022/03/08 11:16:46;;;;;;;;;;;;;;;6.94;100.00;98589.19;5078168;28;19974;-81
2022/03/08 11:19:14;;;;;;;;;;;;;;;7.35;100.00;98576.06;5102370;28;20385;-81
2022/03/08 11:21:43;;;;;;;;;;;;;;;7.24;100.00;98589.28;5090819;28;19924;-80
2022/03/08 11:24:11;;;;;;;;;;;;;;;7.87;100.00;98585.00;5109311;28;19973;-82
2022/03/08 11:26:39;;;;;;;;;;;;;;;7.68;100.00;98590.41;5107932;28;19924;-82
2022/03/08 11:29:07;;;;;;;;;;;;;;;7.83;100.00;98584.22;5117110;28;20367;-82
2022/03/08 11:31:35;;;;;;;;;;;;;;;7.85;100.00;98581.03;5117489;28;20008;-82
2022/03/08 11:34:21;;;;;;;;;;;;;;;7.95;100.00;98569.75;5116971;28;19928;-82
2022/03/08 11:36:54;;;;;;;;;;;;;;;7.64;100.00;98548.72;5115935;28;20001;-82
2022/03/08 11:39:22;;;;;;;;;;;;;;;7.90;100.00;98556.34;5116424;28;19966;-82
2022/03/08 11:41:54;;;;;;;;;;;;;;;7.85;100.00;98558.78;5099466;28;19927;-82
2022/03/08 11:44:22;;;;;;;;;;;;;;;8.10;100.00;98560.03;5117772;28;20027;-81
2022/03/08 11:47:08;;;;;;;;;;;;;;;8.41;100.00;98542.09;5117597;27;20355;-79
2022/03/08 11:49:40;;;;;;;;;;;;;;;7.79;100.00;98566.00;5116459;28;20015;-79
2022/03/08 11:52:15;;;;;;;;;;;;;;;8.33;100.00;98546.19;5116421;28;19924;-79
2022/03/08 11:55:03;;;;;;;;;;;;;;;8.35;100.00;98541.00;5117661;28;19924;-79
2022/03/08 11:57:49;;;;;;;;;;;;;;;8.52;100.00;98534.38;5116194;28;19927;-79
2022/03/08 12:00:33;;;;;;;;;;;;;;;7.58;100.00;98533.72;5117774;28;19985;-80
2022/03/08 12:03:02;;;;;;;;;;;;;;;8.00;100.00;98533.13;5116429;28;19928;-81
2022/03/08 12:05:39;;;;;;;;;;;;;;;8.04;100.00;98535.88;5099197;28;19931;-80
2022/03/08 12:08:21;;;;;;;;;;;;;;;8.01;100.00;98545.84;5116459;28;19967;-80
2022/03/08 12:10:49;;;;;;;;;;;;;;;8.45;100.00;98528.91;5115744;28;20373;-80
2022/03/08 12:13:48;;;;;;;;;;;;;;;8.31;100.00;98531.94;5099039;28;19930;-80
2022/03/08 12:16:27;;;;;;;;;;;;;;;8.23;100.00;98549.94;5115726;28;19932;-80
2022/03/08 12:18:55;;;;;;;;;;;;;;;9.12;100.00;98509.03;5117016;28;20282;-80
2022/03/08 12:21:25;;;;;;;;;;;;;;;8.92;100.00;98516.56;5117012;28;20355;-80
2022/03/08 12:23:54;;;;;;;;;;;;;;;8.88;100.00;98498.31;5115708;28;19923;-80
2022/03/08 12:26:21;;;;;;;;;;;;;;;9.43;100.00;98501.25;5115499;28;19928;-80
2022/03/08 12:29:10;;;;;;;;;;;;;;;9.53;100.00;98507.81;5115880;28;19932;-80
2022/03/08 12:31:55;;;;;;;;;;;;;;;9.81;100.00;98488.50;5104417;28;19932;-77
2022/03/08 12:34:36;;;;;;;;;;;;;;;8.45;100.00;98503.84;5091802;28;20351;-78
2022/03/08 12:37:18;;;;;;;;;;;;;;;8.95;100.00;98515.69;5092911;28;19993;-78
2022/03/08 12:39:48;;;;;;;;;;;;;;;9.53;100.00;98511.38;5095566;28;20391;-77
2022/03/08 12:42:17;;;;;;;;;;;;;;;8.76;100.00;98512.88;5093177;28;19924;-77
2022/03/08 12:45:05;;;;;;;;;;;;;;;8.68;100.00;98517.78;5103306;28;19924;-77
2022/03/08 12:47:34;;;;;;;;;;;;;;;8.55;100.00;98505.69;5073827;28;19924;-77
2022/03/08 12:50:06;;;;;;;;;;;;;;;9.01;100.00;98504.88;5092629;28;20382;-77
2022/03/08 12:52:37;;;;;;;;;;;;;;;8.92;100.00;98502.63;5092788;28;19924;-77
2022/03/08 12:55:05;;;;;;;;;;;;;;;8.88;100.00;98487.97;5091881;28;19924;-77
2022/03/08 12:57:35;;;;;;;;;;;;;;;10.09;100.00;98473.09;5090949;28;19924;-80